createdAt,value
2019-05-09T00:00:07.754Z,98785.92
2019-05-09T00:03:13.816Z,98779.29
2019-05-09T00:06:17.886Z,98772.34
2019-05-09T00:09:23.159Z,98778.27
2019-05-09T00:12:27.358Z,98770.20
2019-05-09T00:15:33.300Z,98781.12
2019-05-09T00:18:37.839Z,98787.98
2019-05-09T00:21:44.353Z,98778.99
2019-05-09T00:24:48.549Z,98778.73
2019-05-09T00:27:53.697Z,98776.42
2019-05-09T00:31:09.122Z,98769.59
2019-05-09T00:34:17.851Z,98768.66
2019-05-09T00:37:43.081Z,98765.98
2019-05-09T00:40:56.000Z,98760.77
2019-05-09T00:43:59.631Z,98756.17
2019-05-09T00:47:09.989Z,98746.25
2019-05-09T00:50:14.318Z,98746.25
2019-05-09T00:53:18.291Z,98752.33
2019-05-09T00:56:24.015Z,98760.63
2019-05-09T00:59:29.335Z,98756.31
2019-05-09T01:02:34.099Z,98758.53
2019-05-09T01:05:38.258Z,98760.83
2019-05-09T01:08:44.212Z,98767.77
2019-05-09T01:11:48.240Z,98769.92
2019-05-09T01:14:53.881Z,98762.36
2019-05-09T01:17:58.170Z,98759.27
2019-05-09T01:21:03.959Z,98759.75
2019-05-09T01:24:08.466Z,98754.47
2019-05-09T01:27:14.203Z,98759.10
2019-05-09T01:30:18.538Z,98752.14
2019-05-09T01:33:29.309Z,98762.78
2019-05-09T01:36:50.815Z,98765.10
2019-05-09T01:39:55.022Z,98766.16
2019-05-09T01:42:59.153Z,98766.47
2019-05-09T01:46:03.891Z,98768.01
2019-05-09T01:49:08.070Z,98769.84
2019-05-09T01:52:13.762Z,98769.27
2019-05-09T01:55:17.935Z,98768.01
2019-05-09T01:58:23.229Z,98766.36
2019-05-09T02:01:27.482Z,98771.69
2019-05-09T02:04:33.402Z,98780.19
2019-05-09T02:07:37.569Z,98769.96
2019-05-09T02:10:44.055Z,98765.53
2019-05-09T02:13:48.507Z,98774.30
2019-05-09T02:17:07.054Z,98769.59
2019-05-09T02:20:13.520Z,98762.05
2019-05-09T02:23:16.621Z,98771.90
2019-05-09T02:26:20.564Z,98770.94
2019-05-09T02:29:24.517Z,98774.12
2019-05-09T02:32:28.874Z,98778.08
2019-05-09T02:35:39.586Z,98777.30
2019-05-09T02:38:39.240Z,98777.69
2019-05-09T02:41:59.610Z,98778.73
2019-05-09T02:44:49.621Z,98777.12
2019-05-09T02:47:54.084Z,98778.86
2019-05-09T02:51:00.336Z,98789.44
2019-05-09T02:54:04.157Z,98779.80
2019-05-09T02:57:09.324Z,98774.95
2019-05-09T03:00:33.213Z,98766.11
2019-05-09T03:03:39.402Z,98774.69
2019-05-09T03:06:43.421Z,98779.39
2019-05-09T03:09:48.219Z,98780.75
2019-05-09T03:12:52.403Z,98780.45
2019-05-09T03:16:00.535Z,98782.84
2019-05-09T03:19:04.854Z,98779.27
2019-05-09T03:22:14.248Z,98785.53
2019-05-09T03:25:19.255Z,98786.81
2019-05-09T03:28:39.355Z,98787.87
2019-05-09T03:31:43.951Z,98786.23
2019-05-09T03:34:48.239Z,98781.30
2019-05-09T03:38:07.845Z,98781.76
2019-05-09T03:41:11.462Z,98779.20
2019-05-09T03:44:17.909Z,98772.03
2019-05-09T03:47:31.475Z,98779.73
2019-05-09T03:50:35.585Z,98768.23
2019-05-09T03:53:40.306Z,98767.53
2019-05-09T03:56:47.957Z,98772.75
2019-05-09T03:59:52.142Z,98770.20
2019-05-09T04:02:58.061Z,98768.08
2019-05-09T04:06:03.191Z,98758.00
2019-05-09T04:09:07.630Z,98759.64
2019-05-09T04:12:12.021Z,98768.63
2019-05-09T04:15:18.914Z,98774.23
2019-05-09T04:18:21.883Z,98774.58
2019-05-09T04:21:27.980Z,98779.02
2019-05-09T04:24:32.874Z,98787.81
2019-05-09T04:27:37.518Z,98784.62
2019-05-09T04:30:42.031Z,98785.02
2019-05-09T04:33:47.357Z,98782.09
2019-05-09T04:36:51.946Z,98784.69
2019-05-09T04:40:01.592Z,98779.09
2019-05-09T04:43:11.958Z,98785.14
2019-05-09T04:46:13.069Z,98791.13
2019-05-09T04:49:14.556Z,98793.83
2019-05-09T04:52:18.520Z,98786.73
2019-05-09T04:55:27.289Z,98785.73
2019-05-09T04:58:31.188Z,98784.23
2019-05-09T05:02:03.664Z,98781.05
2019-05-09T05:05:07.994Z,98785.62
2019-05-09T05:08:11.821Z,98783.47
2019-05-09T05:11:17.844Z,98784.91
2019-05-09T05:14:21.805Z,98779.56
2019-05-09T05:17:30.295Z,98786.16
2019-05-09T05:20:31.772Z,98783.52
2019-05-09T05:23:47.141Z,98774.96
2019-05-09T05:26:51.775Z,98776.63
2019-05-09T05:29:58.376Z,98777.97
2019-05-09T05:33:05.063Z,98785.19
2019-05-09T05:36:09.632Z,98784.80
2019-05-09T05:39:14.339Z,98788.17
2019-05-09T05:42:22.026Z,98790.55
2019-05-09T05:45:28.385Z,98780.44
2019-05-09T05:48:32.488Z,98785.63
2019-05-09T05:51:49.153Z,98779.26
2019-05-09T05:54:53.495Z,98776.23
2019-05-09T05:57:58.099Z,98780.58
2019-05-09T06:01:04.566Z,98774.78
2019-05-09T06:04:08.753Z,98768.00
2019-05-09T06:07:12.919Z,98769.47
2019-05-09T06:10:18.661Z,98772.42
2019-05-09T06:13:23.289Z,98768.13
2019-05-09T06:16:28.128Z,98769.02
2019-05-09T06:19:32.481Z,98767.80
2019-05-09T06:22:38.248Z,98778.38
2019-05-09T06:25:42.203Z,98762.61
2019-05-09T06:28:48.122Z,98760.45
2019-05-09T06:31:52.220Z,98762.16
2019-05-09T06:34:57.835Z,98769.33
2019-05-09T06:38:01.938Z,98767.88
2019-05-09T06:41:08.489Z,98768.27
2019-05-09T06:44:28.312Z,98765.05
2019-05-09T06:47:38.203Z,98765.16
2019-05-09T06:50:42.571Z,98760.91
2019-05-09T06:53:48.858Z,98746.44
2019-05-09T06:56:53.206Z,98761.86
2019-05-09T06:59:57.897Z,98752.47
2019-05-09T07:03:08.081Z,98756.91
2019-05-09T07:06:17.803Z,98763.92
2019-05-09T07:09:43.755Z,98765.34
2019-05-09T07:12:48.709Z,98760.56
2019-05-09T07:15:53.290Z,98759.23
2019-05-09T07:18:58.018Z,98766.97
2019-05-09T07:22:19.666Z,98767.05
2019-05-09T07:25:48.915Z,98768.51
2019-05-09T07:28:53.147Z,98774.77
2019-05-09T07:32:05.019Z,98768.41
2019-05-09T07:35:09.564Z,98763.36
2019-05-09T07:38:13.794Z,98768.45
2019-05-09T07:41:18.127Z,98767.37
2019-05-09T07:44:22.346Z,98777.42
2019-05-09T07:47:28.217Z,98777.17
2019-05-09T07:50:32.299Z,98780.27
2019-05-09T07:53:38.029Z,98781.63
2019-05-09T07:56:42.425Z,98777.20
2019-05-09T07:59:47.856Z,98773.34
2019-05-09T08:02:51.999Z,98767.30
2019-05-09T08:05:57.967Z,98765.69
2019-05-09T08:09:03.274Z,98765.94
2019-05-09T08:12:07.573Z,98761.58
2019-05-09T08:15:16.626Z,98766.25
2019-05-09T08:18:18.212Z,98766.95
2019-05-09T08:21:22.351Z,98773.72
2019-05-09T08:24:27.812Z,98769.48
2019-05-09T08:27:32.590Z,98765.61
2019-05-09T08:30:40.093Z,98755.80
2019-05-09T08:33:42.297Z,98752.33
2019-05-09T08:36:47.781Z,98744.59
2019-05-09T08:39:52.222Z,98752.75
2019-05-09T08:42:58.534Z,98749.81
2019-05-09T08:46:02.443Z,98748.31
2019-05-09T08:49:08.227Z,98743.55
2019-05-09T08:52:16.442Z,98750.94
2019-05-09T08:55:19.702Z,98750.34
2019-05-09T08:58:23.594Z,98746.17
2019-05-09T09:01:46.095Z,98740.58
2019-05-09T09:04:33.991Z,98734.45
2019-05-09T09:07:38.310Z,98736.91
2019-05-09T09:10:42.266Z,98740.14
2019-05-09T09:13:48.294Z,98740.49
2019-05-09T09:16:52.395Z,98747.98
2019-05-09T09:19:58.341Z,98736.33
2019-05-09T09:23:02.912Z,98735.69
2019-05-09T09:26:08.066Z,98731.08
2019-05-09T09:29:12.148Z,98725.25
2019-05-09T09:32:18.664Z,98722.09
2019-05-09T09:35:21.995Z,98724.61
2019-05-09T09:38:28.112Z,98725.84
2019-05-09T09:41:33.074Z,98722.88
2019-05-09T09:44:39.383Z,98714.85
2019-05-09T09:47:43.279Z,98719.14
2019-05-09T09:50:51.348Z,98718.64
2019-05-09T09:53:53.346Z,98716.69
2019-05-09T09:56:58.573Z,98717.05
2019-05-09T10:00:23.404Z,98720.27
2019-05-09T10:03:27.593Z,98727.11
2019-05-09T10:06:32.262Z,98714.69
2019-05-09T10:09:36.357Z,98718.70
2019-05-09T10:12:44.301Z,98719.56
2019-05-09T10:16:02.801Z,98710.77
2019-05-09T10:19:18.532Z,98723.75
2019-05-09T10:22:25.832Z,98719.24
2019-05-09T10:25:29.440Z,98709.09
2019-05-09T10:28:33.721Z,98705.61
2019-05-09T10:31:39.204Z,98693.93
2019-05-09T10:34:43.436Z,98696.72
2019-05-09T10:37:48.558Z,98696.52
2019-05-09T10:40:53.504Z,98692.02
2019-05-09T10:44:04.081Z,98685.81
2019-05-09T10:47:21.470Z,98688.17
2019-05-09T10:50:25.364Z,98684.56
2019-05-09T10:53:29.270Z,98679.58
2019-05-09T10:56:33.513Z,98686.44
2019-05-09T10:59:38.280Z,98685.41
2019-05-09T11:02:42.901Z,98684.95
2019-05-09T11:05:47.162Z,98676.94
2019-05-09T11:08:51.014Z,98669.04
2019-05-09T11:11:58.629Z,98655.72
2019-05-09T11:15:01.439Z,98660.74
2019-05-09T11:18:07.907Z,98658.56
2019-05-09T11:21:11.559Z,98653.30
2019-05-09T11:24:15.806Z,98652.53
2019-05-09T11:27:20.008Z,98649.33
2019-05-09T11:30:24.110Z,98649.23
2019-05-09T11:33:28.300Z,98646.22
2019-05-09T11:36:32.182Z,98649.60
2019-05-09T11:39:41.770Z,98647.47
2019-05-09T11:42:41.962Z,98641.36
2019-05-09T11:45:47.891Z,98635.28
2019-05-09T11:48:51.961Z,98634.02
2019-05-09T11:51:57.649Z,98638.78
2019-05-09T11:55:02.056Z,98646.38
2019-05-09T11:58:08.409Z,98642.52
2019-05-09T12:01:12.730Z,98634.06
2019-05-09T12:04:18.718Z,98637.02
2019-05-09T12:07:22.897Z,98639.87
2019-05-09T12:10:28.610Z,98636.77
2019-05-09T12:13:33.424Z,98636.91
2019-05-09T12:16:38.201Z,98640.48
2019-05-09T12:19:42.405Z,98642.48
2019-05-09T12:22:48.464Z,98651.72
2019-05-09T12:25:52.748Z,98640.91
2019-05-09T12:28:57.818Z,98643.87
2019-05-09T12:32:02.424Z,98650.88
2019-05-09T12:35:08.676Z,98656.72
2019-05-09T12:38:12.380Z,98653.36
2019-05-09T12:41:18.685Z,98639.66
2019-05-09T12:44:24.920Z,98641.28
2019-05-09T12:47:29.091Z,98630.67
2019-05-09T12:50:33.528Z,98624.74
2019-05-09T12:53:39.597Z,98613.78
2019-05-09T12:56:44.421Z,98616.23
2019-05-09T12:59:52.680Z,98604.44
2019-05-09T13:02:54.892Z,98606.21
2019-05-09T13:05:59.491Z,98603.61
2019-05-09T13:09:08.154Z,98611.03
2019-05-09T13:12:11.848Z,98605.23
2019-05-09T13:15:18.399Z,98605.42
2019-05-09T13:18:25.386Z,98595.44
2019-05-09T13:21:32.577Z,98599.17
2019-05-09T13:24:34.498Z,98592.58
2019-05-09T13:27:39.032Z,98594.08
2019-05-09T13:30:43.781Z,98600.70
2019-05-09T13:33:48.846Z,98596.00
2019-05-09T13:36:53.390Z,98598.55
2019-05-09T13:39:57.416Z,98596.31
2019-05-09T13:43:01.893Z,98587.92
2019-05-09T13:46:08.469Z,98581.34
2019-05-09T13:49:15.414Z,98575.52
2019-05-09T13:52:18.154Z,98571.08
2019-05-09T13:55:22.327Z,98570.63
2019-05-09T13:58:28.388Z,98561.81
2019-05-09T14:01:32.331Z,98562.59
2019-05-09T14:04:39.453Z,98565.78
2019-05-09T14:07:42.375Z,98561.37
2019-05-09T14:10:48.367Z,98563.59
2019-05-09T14:13:52.177Z,98560.38
2019-05-09T14:16:56.108Z,98558.09
2019-05-09T14:20:00.158Z,98558.98
2019-05-09T14:23:04.533Z,98567.34
2019-05-09T14:26:09.549Z,98564.02
2019-05-09T14:29:13.877Z,98555.06
2019-05-09T14:32:18.277Z,98552.03
2019-05-09T14:35:22.233Z,98561.42
2019-05-09T14:38:26.348Z,98564.39
2019-05-09T14:41:30.283Z,98563.33
2019-05-09T14:44:37.581Z,98560.80
2019-05-09T14:47:42.686Z,98570.73
2019-05-09T14:50:49.402Z,98571.91
2019-05-09T14:53:52.759Z,98566.27
2019-05-09T14:56:58.321Z,98563.44
2019-05-09T15:00:03.667Z,98566.34
2019-05-09T15:03:08.303Z,98561.53
2019-05-09T15:06:12.691Z,98557.48
2019-05-09T15:09:18.174Z,98562.80
2019-05-09T15:12:22.707Z,98561.59
2019-05-09T15:15:32.017Z,98561.23
2019-05-09T15:18:32.602Z,98563.33
2019-05-09T15:21:38.203Z,98570.03
2019-05-09T15:24:42.966Z,98564.31
2019-05-09T15:27:47.666Z,98569.63
2019-05-09T15:30:52.706Z,98576.27
2019-05-09T15:33:57.039Z,98580.97
2019-05-09T15:37:01.234Z,98581.27
2019-05-09T15:40:08.452Z,98589.27
2019-05-09T15:43:11.626Z,98587.10
2019-05-09T15:46:24.062Z,98597.42
2019-05-09T15:49:28.570Z,98602.77
2019-05-09T15:52:33.028Z,98597.80
2019-05-09T15:55:37.417Z,98601.52
2019-05-09T15:58:41.558Z,98616.33
2019-05-09T16:01:45.715Z,98625.79
2019-05-09T16:04:50.146Z,98629.07
2019-05-09T16:07:54.079Z,98645.87
2019-05-09T16:10:58.629Z,98653.29
2019-05-09T16:14:03.258Z,98651.66
2019-05-09T16:17:07.945Z,98655.41
2019-05-09T16:20:12.320Z,98651.53
2019-05-09T16:23:18.396Z,98664.58
2019-05-09T16:26:22.117Z,98667.84
2019-05-09T16:29:28.508Z,98672.13
2019-05-09T16:32:32.743Z,98678.41
2019-05-09T16:35:38.148Z,98684.04
2019-05-09T16:38:48.479Z,98687.55
2019-05-09T16:41:48.941Z,98698.14
2019-05-09T16:44:52.776Z,98706.41
2019-05-09T16:47:57.542Z,98707.58
2019-05-09T16:51:04.336Z,98708.91
2019-05-09T16:54:08.142Z,98722.03
2019-05-09T16:57:12.079Z,98729.84
2019-05-09T17:00:48.327Z,98732.84
2019-05-09T17:03:52.465Z,98738.66
2019-05-09T17:06:57.653Z,98738.95
2019-05-09T17:10:02.052Z,98743.83
2019-05-09T17:13:07.797Z,98756.85
2019-05-09T17:16:12.545Z,98757.98
2019-05-09T17:19:19.165Z,98763.05
2019-05-09T17:22:41.438Z,98771.59
2019-05-09T17:25:47.927Z,98780.47
2019-05-09T17:28:51.878Z,98782.46
2019-05-09T17:31:58.349Z,98792.83
2019-05-09T17:35:02.235Z,98791.32
2019-05-09T17:38:08.645Z,98800.73
2019-05-09T17:41:12.465Z,98798.13
2019-05-09T17:44:18.623Z,98805.63
2019-05-09T17:47:22.804Z,98810.06
2019-05-09T17:50:28.514Z,98816.84
2019-05-09T17:53:33.760Z,98818.23
2019-05-09T17:56:38.858Z,98825.70
2019-05-09T17:59:44.599Z,98830.45
2019-05-09T18:02:48.922Z,98837.39
2019-05-09T18:05:53.141Z,98838.23
2019-05-09T18:08:57.722Z,98845.30
2019-05-09T18:12:01.901Z,98845.91
2019-05-09T18:15:07.661Z,98858.77
2019-05-09T18:18:11.887Z,98863.34
2019-05-09T18:21:17.832Z,98875.23
2019-05-09T18:24:21.614Z,98882.86
2019-05-09T18:27:27.435Z,98889.92
2019-05-09T18:30:31.576Z,98888.71
2019-05-09T18:33:47.623Z,98890.19
2019-05-09T18:36:52.141Z,98898.72
2019-05-09T18:39:58.177Z,98899.59
2019-05-09T18:43:02.221Z,98902.80
2019-05-09T18:46:08.217Z,98922.56
2019-05-09T18:49:12.260Z,98923.31
2019-05-09T18:52:16.848Z,98928.27
2019-05-09T18:55:21.351Z,98938.12
2019-05-09T18:58:26.201Z,98952.37
2019-05-09T19:01:30.713Z,98951.45
2019-05-09T19:04:34.984Z,98956.14
2019-05-09T19:07:39.165Z,98954.55
2019-05-09T19:10:43.693Z,98967.77
2019-05-09T19:13:48.317Z,98967.61
2019-05-09T19:17:20.649Z,98977.00
2019-05-09T19:20:33.511Z,98986.14
2019-05-09T19:23:37.644Z,98992.44
2019-05-09T19:26:42.060Z,98998.47
2019-05-09T19:29:46.385Z,99007.22
2019-05-09T19:32:50.665Z,99003.26
2019-05-09T19:35:54.833Z,99020.05
2019-05-09T19:38:59.000Z,99015.96
2019-05-09T19:42:03.242Z,99020.02
2019-05-09T19:45:08.954Z,99025.45
2019-05-09T19:48:12.847Z,99027.30
2019-05-09T19:51:16.807Z,99039.64
2019-05-09T19:54:21.063Z,99042.93
2019-05-09T19:57:25.794Z,99045.76
2019-05-09T20:00:30.220Z,99051.68
2019-05-09T20:03:34.544Z,99054.99
2019-05-09T20:06:38.791Z,99053.61
2019-05-09T20:09:51.362Z,99057.98
2019-05-09T20:13:14.455Z,99056.31
2019-05-09T20:16:18.760Z,99066.45
2019-05-09T20:19:23.398Z,99070.59
2019-05-09T20:22:27.400Z,99072.58
2019-05-09T20:25:31.516Z,99074.18
2019-05-09T20:28:35.935Z,99080.76
2019-05-09T20:31:39.961Z,99080.52
2019-05-09T20:34:43.872Z,99084.38
2019-05-09T20:37:47.912Z,99098.23
2019-05-09T20:40:52.160Z,99094.55
2019-05-09T20:43:56.494Z,99113.34
2019-05-09T20:47:01.179Z,99111.61
2019-05-09T20:50:05.703Z,99117.42
2019-05-09T20:53:10.237Z,99120.24
2019-05-09T20:56:15.144Z,99122.30
2019-05-09T20:59:19.825Z,99132.57
2019-05-09T21:02:24.235Z,99145.56
2019-05-09T21:05:28.335Z,99136.44
2019-05-09T21:08:33.146Z,99137.97
2019-05-09T21:11:37.325Z,99146.50
2019-05-09T21:14:41.597Z,99156.39
2019-05-09T21:17:45.632Z,99154.03
2019-05-09T21:20:50.364Z,99148.59
2019-05-09T21:23:54.944Z,99161.06
2019-05-09T21:26:59.379Z,99163.80
2019-05-09T21:30:04.439Z,99162.86
2019-05-09T21:33:08.550Z,99170.47
2019-05-09T21:36:12.483Z,99172.86
2019-05-09T21:39:16.308Z,99176.41
2019-05-09T21:42:20.478Z,99183.98
2019-05-09T21:45:24.655Z,99194.30
2019-05-09T21:48:29.646Z,99196.91
2019-05-09T21:51:34.403Z,99200.27
2019-05-09T21:54:38.671Z,99202.30
2019-05-09T21:57:42.590Z,99204.77
2019-05-09T22:00:50.780Z,99208.75
2019-05-09T22:03:55.076Z,99210.28
2019-05-09T22:06:59.310Z,99219.94
2019-05-09T22:10:04.484Z,99228.09
2019-05-09T22:13:08.803Z,99231.58
2019-05-09T22:16:13.106Z,99240.11
2019-05-09T22:19:17.591Z,99245.25
2019-05-09T22:22:21.793Z,99248.84
2019-05-09T22:25:25.781Z,99248.16
2019-05-09T22:28:29.631Z,99248.79
2019-05-09T22:31:34.080Z,99259.94
2019-05-09T22:34:38.200Z,99256.41
2019-05-09T22:37:42.932Z,99257.77
2019-05-09T22:40:46.834Z,99257.77
2019-05-09T22:43:50.764Z,99254.66
2019-05-09T22:46:55.382Z,99257.38
2019-05-09T22:49:59.210Z,99265.91
2019-05-09T22:53:03.208Z,99271.34
2019-05-09T22:56:07.842Z,99266.49
2019-05-09T22:59:12.271Z,99271.64
2019-05-09T23:02:16.197Z,99271.15
2019-05-09T23:05:20.457Z,99279.69
2019-05-09T23:08:24.629Z,99283.17
2019-05-09T23:11:29.175Z,99283.27
2019-05-09T23:14:33.695Z,99284.05
2019-05-09T23:17:38.407Z,99286.66
2019-05-09T23:20:57.475Z,99284.81
2019-05-09T23:24:06.924Z,99293.45
2019-05-09T23:27:13.118Z,99290.34
2019-05-09T23:30:17.211Z,99291.31
2019-05-09T23:33:22.256Z,99291.42
2019-05-09T23:36:26.513Z,99293.01
2019-05-09T23:39:35.103Z,99297.38
2019-05-09T23:42:39.287Z,99298.97
2019-05-09T23:45:44.198Z,99304.75
2019-05-09T23:48:48.325Z,99306.49
2019-05-09T23:51:52.610Z,99305.52
2019-05-09T23:55:14.730Z,99307.85
2019-05-09T23:58:36.912Z,99309.70
